Page, AZ

2:24 PM MST on August 27, 2014 (GMT -0700)
Bryce Canyon | Change Station
CLOSE
Current Station
Airport
Location: Bryce Canyon,
Elevation: 7585 ft
Nearby Weather Stations

Elev 7585 ft 37.71 °N, 112.15 °W | Updated 31 minutes ago

Partly Cloudy
Partly Cloudy
65 °F
Feels Like 65 °F
N
16
Wind Variable Wind from WNW
Gusts 25 mph

Today
High -- | Low -- °F
--% Chance of Precip.
Yesterday
High -- | Low -- °F
Precip. -- in
5:52 AM 7:01 PM
Waxing Crescent, 5% visible
Pressure 30.10 in
Visibility 10.0 miles
Clouds Few 7500 ft
Dew Point 41 °F
Humidity 42%
Rainfall 0.20 in
Snow Depth Not available.
UV 9 out of 12
Pollen 6.10 out of 12
Air Quality Not available.
Flu Activity Not available.
METAR KBCE 272053Z AUTO 30014G22KT 10SM FEW075 18/05 A3038 RMK AO2 LTG DSNT SE AND S SLP193 T01830050 55006

More Conditions Fewer Conditions

Pressure 30.10 in
Visibility 10.0 miles
Clouds Few 7500 ft
Dew Point 41 °F
Humidity 42%
Rainfall 0.20 in
Snow Depth Not available.
UV 9 out of 12
Pollen 6.10 out of 12
Air Quality Not available.
Flu Activity Not available.
METAR KBCE 272053Z AUTO 30014G22KT 10SM FEW075 18/05 A3038 RMK AO2 LTG DSNT SE AND S SLP193 T01830050 55006

More Conditions Fewer Conditions

10-Day Weather Forecast

Almanac

Astronomy

Aug. 27, 2014 Rise Set
Actual Time 5:52 AM MST 7:01 PM MST
Civil Twilight 5:25 AM MST 7:28 PM MST
Nautical Twilight 4:54 AM MST 7:59 PM MST
Astronomical Twilight 4:20 AM MST 8:32 PM MST
Moon 7:48 AM MST 8:00 PM MST
Length of Visible Light 14h 02m
Length of Day
13h 08m
Tomorrow will be 2m 13s shorter.
Waxing Crescent, 5% of the Moon is Illuminated
Today
Waxing Crescent
Sep 2
First Quarter
Sep 8
Full
Sep 15
Last Quarter
Sep 24
New

Today's Extremes

State Highs State Lows

Community

WunderPhotos

Upload Photos

1,747,791 photos uploaded!

Nearby

Snow Depth

Station Depth Elevation
Snowslide Canyon 2 in 9730 ft
Mormon Mountain 0 in 7500 ft
Workman Creek 2 in 6900 ft
Beaver Head 0 in 7990 ft

Earthquake Activity

City Distance Mag. Time & Date
No recent earthquake activity has been reported nearby.
Minimum magnitude displayed is 2.5.

Coastal Water Temperatures

Place Temperature
No Stations Reporting

Nearby Weather Stations